Time;durP1;ratioP1;P1;durP2;ratioP2;P2;SDS_P1;SDS_P2;PMS_P1;PMS_P2;Temp;Humidity;BMP_temperature;BMP_pressure;BME280_temperature;BME280_humidity;BME280_pressure;Samples;Min_cycle;Max_cycle;Signal;HPM_P1;HPM_P2
2022/09/05 00:00:30;;;;;;;4.70;4.20;;;;;;;18.19;85.09;98550.38;4174751;28;20703;-90
2022/09/05 00:02:38;;;;;;;5.43;4.93;;;;;;;18.15;85.61;98550.78;4188578;28;20749;-90
2022/09/05 00:04:59;;;;;;;7.20;4.60;;;;;;;18.11;86.10;98550.19;4173046;28;20648;-90
2022/09/05 00:07:08;;;;;;;4.93;4.33;;;;;;;18.09;85.67;98538.94;4175227;28;21178;-90
2022/09/05 00:09:55;;;;;;;4.50;4.10;;;;;;;18.09;85.88;98548.69;4181782;28;22675;-90
2022/09/05 00:12:00;;;;;;;4.87;4.37;;;;;;;18.05;85.98;98549.91;4172204;28;20655;-90
2022/09/05 00:14:19;;;;;;;5.07;4.23;;;;;;;18.03;85.85;98560.63;4187294;28;20655;-90
2022/09/05 00:16:51;;;;;;;6.20;4.77;;;;;;;18.01;85.97;98556.44;4189956;28;21364;-90
2022/09/05 00:19:04;;;;;;;4.83;4.33;;;;;;;17.99;86.75;98558.38;4188571;28;21243;-90
2022/09/05 00:21:45;;;;;;;5.03;4.30;;;;;;;17.98;86.56;98562.00;4183721;28;21286;-90
2022/09/05 00:24:20;;;;;;;5.30;4.80;;;;;;;17.94;86.76;98557.97;4188146;28;20656;-90
2022/09/05 00:26:51;;;;;;;8.23;5.20;;;;;;;17.92;86.50;98560.75;4188229;28;20644;-90
2022/09/05 00:29:02;;;;;;;6.13;5.00;;;;;;;17.88;86.60;98560.34;4192516;28;20733;-90
2022/09/05 00:31:18;;;;;;;4.83;4.43;;;;;;;17.84;86.69;98559.78;4166251;28;20720;-90
2022/09/05 00:33:49;;;;;;;5.47;4.87;;;;;;;17.82;87.03;98556.44;4172370;28;20655;-91
2022/09/05 00:36:06;;;;;;;7.13;4.80;;;;;;;17.82;87.03;98560.91;4188177;28;21230;-92
2022/09/05 00:38:14;;;;;;;5.10;4.60;;;;;;;17.81;86.84;98554.78;4174997;28;20675;-93
2022/09/05 00:40:25;;;;;;;5.00;4.50;;;;;;;17.80;86.57;98554.91;4175601;28;21022;-91
2022/09/05 00:42:28;;;;;;;5.30;4.63;;;;;;;17.79;87.04;98547.97;4170692;28;20671;-91
2022/09/05 00:44:33;;;;;;;5.40;4.90;;;;;;;17.78;86.96;98551.56;4181895;28;21016;-91
2022/09/05 00:46:38;;;;;;;5.20;4.70;;;;;;;17.78;86.84;98554.22;4168161;28;20647;-90
2022/09/05 00:48:49;;;;;;;6.40;5.03;;;;;;;17.76;86.91;98557.00;4187855;28;20673;-91
2022/09/05 00:51:23;;;;;;;5.80;4.63;;;;;;;17.75;86.85;98549.22;4186642;28;20645;-92
2022/09/05 00:53:42;;;;;;;5.40;4.90;;;;;;;17.72;87.81;98558.22;4155578;28;20670;-90
2022/09/05 00:55:54;;;;;;;5.50;4.87;;;;;;;17.69;86.74;98555.03;4182285;28;20643;-91
2022/09/05 00:58:11;;;;;;;6.03;5.40;;;;;;;17.66;87.27;98550.03;4187665;28;21081;-90
2022/09/05 01:00:16;;;;;;;5.50;5.00;;;;;;;17.63;87.34;98545.84;4187695;28;21444;-91
2022/09/05 01:02:31;;;;;;;5.63;5.03;;;;;;;17.63;86.82;98556.41;4187163;28;20757;-91
2022/09/05 01:04:54;;;;;;;5.90;5.20;;;;;;;17.63;87.63;98555.59;4171361;28;21292;-91
2022/09/05 01:07:20;;;;;;;6.13;5.00;;;;;;;17.58;87.17;98556.00;4186092;28;21782;-91
2022/09/05 01:09:38;;;;;;;5.27;4.77;;;;;;;17.57;88.04;98551.69;4173563;28;20646;-90
2022/09/05 01:11:50;;;;;;;5.80;4.90;;;;;;;17.55;87.66;98558.06;4175130;28;20700;-90
2022/09/05 01:14:00;;;;;;;5.40;4.77;;;;;;;17.53;86.95;98550.31;4192021;28;21049;-91
2022/09/05 01:16:09;;;;;;;5.43;4.93;;;;;;;17.50;87.20;98545.28;4171551;28;20637;-90
2022/09/05 01:18:25;;;;;;;5.57;4.63;;;;;;;17.51;88.35;98544.34;4167101;28;20966;-91
2022/09/05 01:20:50;;;;;;;6.40;5.50;;;;;;;17.47;87.69;98540.28;4171875;28;21536;-91
2022/09/05 01:23:17;;;;;;;5.73;5.20;;;;;;;17.45;87.54;98545.84;4186195;28;20646;-91
2022/09/05 01:25:28;;;;;;;5.60;5.10;;;;;;;17.43;87.31;98551.25;4204822;28;20695;-91
2022/09/05 01:27:47;;;;;;;5.93;5.33;;;;;;;17.39;87.83;98549.00;4184030;28;21072;-91
2022/09/05 01:30:12;;;;;;;5.90;5.10;;;;;;;17.32;86.57;98543.47;4173347;28;21015;-91
2022/09/05 01:32:25;;;;;;;5.90;5.40;;;;;;;17.29;88.21;98550.78;4190199;28;20653;-91
2022/09/05 01:34:34;;;;;;;5.67;5.17;;;;;;;17.27;88.27;98555.38;4188163;28;20652;-90
2022/09/05 01:36:49;;;;;;;6.93;5.23;;;;;;;17.24;88.15;98566.19;4189775;28;20943;-91
2022/09/05 01:38:59;;;;;;;5.90;5.30;;;;;;;17.21;87.97;98558.53;4170690;28;20642;-91
2022/09/05 01:41:30;;;;;;;5.57;4.80;;;;;;;17.19;87.56;98558.63;4185837;28;20629;-91
2022/09/05 01:43:50;;;;;;;7.03;6.33;;;;;;;17.18;87.87;98550.88;4171326;28;20651;-91
2022/09/05 01:45:59;;;;;;;5.97;5.30;;;;;;;17.17;88.24;98544.75;4185347;28;21008;-91
2022/09/05 01:48:04;;;;;;;5.87;5.30;;;;;;;17.14;88.27;98534.50;4184026;28;20653;-90
2022/09/05 01:50:20;;;;;;;6.53;4.73;;;;;;;17.12;87.65;98536.44;4185348;28;20669;-91
2022/09/05 01:52:29;;;;;;;5.73;5.07;;;;;;;17.10;86.96;98542.78;4187228;28;21392;-91
2022/09/05 01:54:40;;;;;;;5.43;4.60;;;;;;;17.02;87.09;98532.91;4169115;28;20741;-91
2022/09/05 01:56:52;;;;;;;5.50;4.90;;;;;;;16.98;86.21;98530.69;4185867;28;20749;-91
2022/09/05 01:59:10;;;;;;;5.57;5.07;;;;;;;16.94;87.83;98533.72;4184966;28;20652;-91
2022/09/05 02:01:18;;;;;;;6.03;5.43;;;;;;;16.94;87.74;98531.06;4182044;28;20732;-91
2022/09/05 02:03:40;;;;;;;7.60;5.17;;;;;;;16.94;87.01;98533.72;4183052;28;20645;-90
2022/09/05 02:06:24;;;;;;;5.53;5.03;;;;;;;16.94;88.33;98537.19;4170723;28;20661;-91
2022/09/05 02:08:40;;;;;;;5.20;4.70;;;;;;;16.95;87.43;98540.66;4169251;28;21124;-91
2022/09/05 02:10:54;;;;;;;5.83;5.23;;;;;;;16.91;89.05;98537.44;4182458;28;20661;-90
2022/09/05 02:13:03;;;;;;;5.57;4.97;;;;;;;16.89;87.91;98531.47;4200451;28;21221;-91
2022/09/05 02:15:13;;;;;;;5.83;5.23;;;;;;;16.90;88.10;98530.53;4166878;28;20649;-91
2022/09/05 02:17:26;;;;;;;8.00;5.50;;;;;;;16.87;89.32;98524.66;4173934;28;20640;-91
2022/09/05 02:19:52;;;;;;;6.10;5.50;;;;;;;16.83;88.33;98533.81;4168597;28;20657;-91
2022/09/05 02:22:01;;;;;;;6.57;5.60;;;;;;;16.76;88.66;98528.22;4172052;28;20649;-91
2022/09/05 02:24:12;;;;;;;6.90;6.20;;;;;;;16.72;88.35;98526.84;4187517;28;20715;-91
2022/09/05 02:26:18;;;;;;;5.87;5.27;;;;;;;16.70;89.70;98520.00;4174680;28;20663;-91
2022/09/05 02:28:27;;;;;;;6.30;5.70;;;;;;;16.69;89.70;98524.47;4165888;28;20668;-90
2022/09/05 02:30:35;;;;;;;6.23;5.63;;;;;;;16.71;89.17;98522.53;4172908;28;20654;-91
2022/09/05 02:32:58;;;;;;;6.40;5.80;;;;;;;16.71;89.21;98517.25;4168341;28;20659;-91
2022/09/05 02:35:07;;;;;;;7.03;5.97;;;;;;;16.69;88.84;98524.47;4198032;28;21088;-91
2022/09/05 02:37:14;;;;;;;7.87;5.90;;;;;;;16.68;89.69;98519.31;4182967;28;20639;-91
2022/09/05 02:39:34;;;;;;;6.93;5.80;;;;;;;16.67;89.42;98525.53;4174650;28;20705;-90
2022/09/05 02:41:59;;;;;;;6.13;5.53;;;;;;;16.62;88.88;98520.66;4176450;28;20660;-91
2022/09/05 02:44:29;;;;;;;5.80;5.30;;;;;;;16.61;90.39;98521.66;4192942;28;20662;-91
2022/09/05 02:47:01;;;;;;;6.27;5.67;;;;;;;16.58;89.95;98514.00;4178250;28;21246;-91
2022/09/05 02:49:07;;;;;;;7.10;6.07;;;;;;;16.56;90.23;98508.03;4188452;28;20785;-91
2022/09/05 02:51:35;;;;;;;6.17;5.57;;;;;;;16.55;89.41;98511.66;4189229;28;20653;-90
2022/09/05 02:54:00;;;;;;;6.37;5.40;;;;;;;16.54;89.80;98509.13;4194240;28;20655;-90
2022/09/05 02:56:32;;;;;;;7.30;5.97;;;;;;;16.52;88.69;98511.91;4176138;28;20628;-91
2022/09/05 02:59:00;;;;;;;6.37;5.77;;;;;;;16.48;88.39;98520.19;4172142;28;20678;-91
2022/09/05 03:01:31;;;;;;;6.27;5.67;;;;;;;16.47;89.53;98512.44;4180283;28;20638;-90
2022/09/05 03:03:40;;;;;;;7.20;5.80;;;;;;;16.45;90.06;98514.34;4193621;28;20654;-91
2022/09/05 03:05:47;;;;;;;7.07;5.77;;;;;;;16.43;89.80;98506.56;4195185;28;20651;-91
2022/09/05 03:08:07;;;;;;;7.47;6.33;;;;;;;16.43;91.12;98498.66;4175938;28;24145;-91
2022/09/05 03:10:29;;;;;;;8.40;5.90;;;;;;;16.44;90.60;98494.25;4193496;28;20660;-90
2022/09/05 03:13:18;;;;;;;6.77;6.10;;;;;;;16.41;88.69;98503.22;4173537;28;21275;-91
2022/09/05 03:16:03;;;;;;;6.07;5.47;;;;;;;16.40;89.56;98500.72;4153111;28;20661;-90
2022/09/05 03:18:23;;;;;;;6.83;6.20;;;;;;;16.37;90.88;98504.44;4160746;28;20692;-91
2022/09/05 03:23:53;;;;;;;7.80;6.50;;;;;;;16.34;90.65;98512.63;4207388;27;1277516;-90
2022/09/05 03:26:34;;;;;;;6.70;6.00;;;;;;;16.34;90.52;98517.03;4169830;28;20471;-91
2022/09/05 03:29:14;;;;;;;5.80;5.20;;;;;;;16.28;88.92;98514.94;4209953;28;20661;-90
2022/09/05 03:31:37;;;;;;;7.50;6.33;;;;;;;16.22;90.33;98518.09;4196974;28;20659;-90
2022/09/05 03:33:58;;;;;;;6.00;5.50;;;;;;;16.19;89.61;98513.91;4223173;28;21050;-91
2022/09/05 03:36:49;;;;;;;7.33;6.37;;;;;;;16.16;90.66;98518.56;4202046;28;21494;-91
2022/09/05 03:39:34;;;;;;;7.10;6.23;;;;;;;16.12;89.30;98519.78;4205018;28;20649;-91
2022/09/05 03:41:52;;;;;;;6.73;6.13;;;;;;;16.10;90.03;98522.56;4199070;28;20677;-90
2022/09/05 03:44:09;;;;;;;7.03;6.37;;;;;;;16.08;89.88;98527.09;4197773;28;20995;-91
2022/09/05 03:46:26;;;;;;;7.57;6.80;;;;;;;16.10;91.55;98526.97;4202120;28;20642;-91
2022/09/05 03:48:58;;;;;;;7.80;6.70;;;;;;;16.10;91.47;98526.97;4202439;28;20667;-90
2022/09/05 03:51:31;;;;;;;8.70;6.50;;;;;;;16.09;91.07;98527.94;4201703;28;20653;-90
2022/09/05 03:54:35;;;;;;;6.33;5.60;;;;;;;16.08;89.70;98527.09;4203611;28;20642;-90
2022/09/05 03:57:13;;;;;;;6.80;6.10;;;;;;;15.99;88.75;98515.69;4227800;28;20636;-90
2022/09/05 04:00:04;;;;;;;7.87;5.47;;;;;;;15.92;89.96;98525.03;4233059;28;21324;-91
2022/09/05 04:02:10;;;;;;;5.77;5.17;;;;;;;15.85;88.32;98524.72;4217428;28;20666;-91
2022/09/05 04:04:37;;;;;;;5.80;5.20;;;;;;;15.80;89.43;98518.16;4216540;28;20689;-90
2022/09/05 04:07:03;;;;;;;7.20;6.50;;;;;;;15.75;89.30;98520.34;4200205;28;21054;-90
2022/09/05 04:09:32;;;;;;;5.77;5.27;;;;;;;15.72;88.93;98518.78;4217608;28;20747;-90
2022/09/05 04:11:56;;;;;;;7.70;6.27;;;;;;;15.73;89.94;98528.34;4217321;28;20643;-90
2022/09/05 04:14:02;;;;;;;6.90;6.20;;;;;;;15.76;90.45;98524.66;4201119;28;20686;-90
2022/09/05 04:16:10;;;;;;;7.10;6.40;;;;;;;15.76;90.04;98529.91;4202017;28;20728;-91
2022/09/05 04:18:24;;;;;;;6.83;6.13;;;;;;;15.77;90.80;98524.53;4202604;28;20732;-90
2022/09/05 04:20:39;;;;;;;6.70;6.10;;;;;;;15.77;90.00;98532.41;4221445;28;20676;-91
2022/09/05 04:23:05;;;;;;;7.17;6.50;;;;;;;15.76;91.32;98541.25;4199976;28;20801;-90
2022/09/05 04:25:12;;;;;;;7.40;6.70;;;;;;;15.74;90.25;98540.53;4183103;28;20669;-90
2022/09/05 04:27:29;;;;;;;7.17;6.50;;;;;;;15.74;91.66;98537.06;4197293;28;20698;-91
2022/09/05 04:29:44;;;;;;;7.03;6.23;;;;;;;15.72;91.79;98537.19;4186728;28;20661;-90
2022/09/05 04:31:55;;;;;;;7.40;6.70;;;;;;;15.74;91.37;98534.44;4196857;28;21056;-90
2022/09/05 04:34:36;;;;;;;7.90;6.90;;;;;;;15.75;92.53;98541.38;4184518;28;20643;-90
2022/09/05 04:36:40;;;;;;;10.80;7.50;;;;;;;15.73;90.94;98538.03;4200811;28;20730;-90
2022/09/05 04:38:45;;;;;;;8.43;6.80;;;;;;;15.72;91.07;98534.56;4189427;28;20651;-90
2022/09/05 04:40:50;;;;;;;8.97;6.53;;;;;;;15.72;89.60;98539.00;4206891;28;23983;-90
2022/09/05 04:42:53;;;;;;;8.73;6.37;;;;;;;15.70;91.32;98538.28;4174982;28;21275;-90
2022/09/05 04:45:03;;;;;;;9.73;7.33;;;;;;;15.68;91.34;98540.19;4191046;28;22301;-89
2022/09/05 04:47:10;;;;;;;7.17;6.37;;;;;;;15.70;91.38;98548.81;4174836;28;20754;-90
2022/09/05 04:49:19;;;;;;;8.47;7.00;;;;;;;15.70;89.34;98544.38;4173176;28;20767;-90
2022/09/05 04:52:00;;;;;;;7.77;7.00;;;;;;;15.70;89.63;98544.38;4175892;28;20717;-90
2022/09/05 04:54:22;;;;;;;7.37;6.67;;;;;;;15.74;91.48;98543.19;4209211;28;20653;-90
2022/09/05 04:56:33;;;;;;;8.83;6.97;;;;;;;15.76;89.86;98545.69;4172461;28;21331;-90
2022/09/05 04:58:38;;;;;;;7.47;6.80;;;;;;;15.76;92.01;98546.50;4191698;28;21315;-90
2022/09/05 05:01:06;;;;;;;7.00;6.30;;;;;;;15.80;90.61;98550.56;4184023;28;20745;-90
2022/09/05 05:03:31;;;;;;;7.83;7.03;;;;;;;15.82;91.37;98550.44;4192172;28;20663;-90
2022/09/05 05:05:56;;;;;;;8.43;7.10;;;;;;;15.90;90.62;98564.63;4171228;28;20640;-90
2022/09/05 05:08:23;;;;;;;7.33;6.63;;;;;;;16.06;90.58;98559.78;4174322;28;20750;-90
2022/09/05 05:10:44;;;;;;;7.40;6.53;;;;;;;16.19;90.60;98561.28;4187395;28;20656;-91
2022/09/05 05:13:10;;;;;;;7.67;6.87;;;;;;;16.33;88.58;98565.41;4170397;28;20645;-91
2022/09/05 05:15:41;;;;;;;8.90;7.03;;;;;;;16.50;90.27;98567.47;4174686;28;20709;-91
2022/09/05 05:18:15;;;;;;;8.83;7.20;;;;;;;16.68;89.79;98578.09;4189249;28;21281;-90
2022/09/05 05:20:42;;;;;;;9.07;7.07;;;;;;;16.88;89.56;98577.22;4203258;28;21032;-90
2022/09/05 05:22:55;;;;;;;8.23;6.80;;;;;;;17.04;88.12;98572.31;4191131;28;20771;-91
2022/09/05 05:25:00;;;;;;;12.10;6.97;;;;;;;17.20;87.87;98578.81;4204916;28;20642;-90
2022/09/05 05:27:07;;;;;;;7.57;6.77;;;;;;;17.37;87.23;98583.44;4189843;28;20663;-91
2022/09/05 05:29:12;;;;;;;8.07;7.23;;;;;;;17.55;86.30;98576.53;4189023;28;21249;-91
2022/09/05 05:31:24;;;;;;;8.07;7.07;;;;;;;17.74;86.96;98582.69;4188137;28;20736;-91
2022/09/05 05:33:32;;;;;;;9.17;8.30;;;;;;;17.92;85.67;98582.84;4210299;28;20651;-90
2022/09/05 05:35:35;;;;;;;7.93;6.97;;;;;;;18.08;85.08;98584.78;4203018;28;21026;-91
2022/09/05 05:37:52;;;;;;;8.43;7.63;;;;;;;18.08;84.22;98586.59;4172969;28;20653;-90
2022/09/05 05:40:04;;;;;;;9.40;7.40;;;;;;;17.96;84.13;98588.53;4186372;28;20671;-91
2022/09/05 05:42:14;;;;;;;8.43;7.47;;;;;;;17.90;84.48;98580.34;4191179;28;20649;-91
2022/09/05 05:44:26;;;;;;;8.13;7.33;;;;;;;17.92;84.19;98589.78;4206292;28;20697;-91
2022/09/05 05:46:32;;;;;;;8.40;7.60;;;;;;;17.95;84.62;98589.53;4201445;28;20659;-90
2022/09/05 05:48:38;;;;;;;9.20;7.87;;;;;;;17.95;85.38;98586.03;4189351;28;20658;-91
2022/09/05 05:50:49;;;;;;;8.10;7.40;;;;;;;18.07;85.05;98590.22;4188478;28;20657;-90
2022/09/05 05:53:11;;;;;;;7.50;6.80;;;;;;;18.11;84.38;98589.78;4188749;28;20717;-90
2022/09/05 05:55:57;;;;;;;8.40;6.80;;;;;;;18.28;85.25;98596.22;4174650;28;21185;-91
2022/09/05 05:58:22;;;;;;;7.90;7.10;;;;;;;18.52;84.25;98594.81;4172433;28;20653;-91
2022/09/05 06:00:37;;;;;;;7.60;6.83;;;;;;;18.79;82.12;98598.38;4188269;28;20744;-91
2022/09/05 06:03:19;;;;;;;8.13;7.33;;;;;;;18.89;82.19;98599.19;4208064;28;20663;-91
2022/09/05 06:06:02;;;;;;;9.60;7.70;;;;;;;18.96;81.75;98603.75;4172696;28;21212;-91
2022/09/05 06:08:26;;;;;;;7.67;6.97;;;;;;;19.15;81.65;98606.34;4160442;28;20667;-90
2022/09/05 06:11:34;;;;;;;7.63;6.93;;;;;;;19.28;81.26;98600.75;4186146;28;20650;-90
2022/09/05 06:14:34;;;;;;;7.63;6.93;;;;;;;19.34;81.80;98608.13;4205918;28;20636;-91
2022/09/05 06:17:41;;;;;;;8.47;6.70;;;;;;;19.59;80.06;98617.03;4204969;28;20738;-92
2022/09/05 06:20:14;;;;;;;7.90;7.13;;;;;;;19.58;79.53;98607.41;4166870;28;21751;-90
2022/09/05 06:23:18;;;;;;;9.37;6.83;;;;;;;19.54;79.75;98608.69;4190562;28;21056;-92
2022/09/05 06:26:17;;;;;;;7.60;6.90;;;;;;;19.59;80.72;98609.09;4196651;28;20645;-92
2022/09/05 06:28:25;;;;;;;9.93;7.00;;;;;;;19.84;81.20;98616.31;4174349;28;21081;-91
2022/09/05 06:30:35;;;;;;;7.70;6.97;;;;;;;20.08;80.34;98609.50;4205256;28;20988;-91
2022/09/05 06:33:00;;;;;;;7.70;6.27;;;;;;;20.23;79.00;98602.69;4193133;28;20655;-91
2022/09/05 06:35:21;;;;;;;7.60;6.80;;;;;;;20.30;79.50;98597.59;4175929;28;20643;-92
2022/09/05 06:37:34;;;;;;;8.50;6.87;;;;;;;20.44;78.93;98597.91;4176516;28;20645;-93
2022/09/05 06:39:52;;;;;;;7.07;6.30;;;;;;;20.62;78.98;98599.53;4207450;28;21512;-92
2022/09/05 06:42:13;;;;;;;7.93;6.60;;;;;;;20.75;78.37;98604.47;4193520;28;20650;-94
2022/09/05 06:44:46;;;;;;;8.53;7.33;;;;;;;20.86;78.34;98610.34;4189207;28;21694;-92
2022/09/05 06:46:52;;;;;;;7.87;7.03;;;;;;;21.08;77.70;98610.69;4186952;28;20650;-92
2022/09/05 06:49:18;;;;;;;7.47;6.77;;;;;;;21.14;76.90;98614.50;4188128;28;20696;-89
2022/09/05 06:52:01;;;;;;;7.13;6.43;;;;;;;21.21;76.23;98611.06;4189450;28;20702;-90
2022/09/05 06:54:48;;;;;;;8.93;7.00;;;;;;;21.31;75.60;98619.75;4183698;28;20658;-92
2022/09/05 06:57:15;;;;;;;8.50;7.60;;;;;;;21.44;77.01;98620.13;4190213;28;20702;-94
2022/09/05 06:59:55;;;;;;;6.80;6.20;;;;;;;21.54;75.89;98615.59;4165544;28;20645;-89
2022/09/05 07:02:07;;;;;;;8.40;7.10;;;;;;;21.72;76.12;98627.78;4207438;28;20634;-90
2022/09/05 07:04:21;;;;;;;9.00;6.90;;;;;;;22.06;76.71;98628.56;4172980;28;20667;-90
2022/09/05 07:06:58;;;;;;;7.50;6.70;;;;;;;22.31;74.59;98637.28;4186880;28;20700;-90
2022/09/05 07:09:19;;;;;;;8.70;7.20;;;;;;;22.48;73.78;98632.81;4183863;28;20666;-95
2022/09/05 07:11:26;;;;;;;6.80;6.20;;;;;;;22.69;73.58;98628.66;4166673;28;20653;-90
2022/09/05 07:13:33;;;;;;;7.67;6.93;;;;;;;22.89;72.22;98635.28;4166247;28;21009;-90
2022/09/05 07:15:43;;;;;;;7.70;6.80;;;;;;;23.11;72.28;98646.13;4193564;28;20642;-90
2022/09/05 07:17:52;;;;;;;8.70;6.23;;;;;;;23.41;72.64;98640.88;4175597;28;20708;-90
2022/09/05 07:20:20;;;;;;;7.07;6.37;;;;;;;23.65;72.72;98642.66;4205415;28;20646;-90
2022/09/05 07:22:31;;;;;;;7.83;6.17;;;;;;;23.79;71.46;98640.13;4176592;28;21382;-90
2022/09/05 07:24:51;;;;;;;6.93;6.00;;;;;;;23.95;70.24;98654.22;4187280;28;20690;-90
2022/09/05 07:26:59;;;;;;;8.03;6.40;;;;;;;23.98;70.77;98653.88;4205261;28;20678;-90
2022/09/05 07:29:04;;;;;;;6.67;6.07;;;;;;;24.00;70.05;98643.03;4187408;28;21054;-90
2022/09/05 07:31:15;;;;;;;7.57;5.80;;;;;;;24.00;71.44;98653.69;4186030;28;20646;-90
2022/09/05 07:33:40;;;;;;;6.63;6.03;;;;;;;24.15;70.49;98650.09;4190314;28;20645;-90
2022/09/05 07:35:43;;;;;;;6.67;5.83;;;;;;;24.40;70.79;98648.97;4189815;28;20661;-90
2022/09/05 07:37:49;;;;;;;5.60;5.10;;;;;;;24.58;69.55;98655.66;4190620;28;20721;-90
2022/09/05 07:39:54;;;;;;;7.43;5.50;;;;;;;24.72;69.86;98649.56;4203053;28;20652;-90
2022/09/05 07:42:05;;;;;;;6.80;5.83;;;;;;;24.89;69.35;98651.91;4175738;28;20705;-90
2022/09/05 07:44:17;;;;;;;6.03;5.43;;;;;;;24.90;69.17;98652.78;4180769;28;20761;-90
2022/09/05 07:46:26;;;;;;;6.97;5.30;;;;;;;24.95;68.10;98659.22;4173764;28;20702;-90
2022/09/05 07:48:33;;;;;;;6.10;5.60;;;;;;;25.04;67.48;98650.16;4189093;28;20665;-91
2022/09/05 07:50:46;;;;;;;5.93;5.33;;;;;;;25.25;67.58;98651.09;4184117;28;20656;-90
2022/09/05 07:53:09;;;;;;;6.23;5.10;;;;;;;25.38;67.32;98654.00;4204073;28;20698;-89
2022/09/05 07:55:34;;;;;;;7.30;4.97;;;;;;;25.65;66.66;98648.88;4187316;28;20631;-91
2022/09/05 07:58:00;;;;;;;6.83;4.67;;;;;;;25.78;66.17;98657.06;4184185;28;21555;-90
2022/09/05 08:00:07;;;;;;;5.83;5.33;;;;;;;25.68;66.32;98645.00;4186316;28;20703;-90
2022/09/05 08:02:30;;;;;;;6.13;4.80;;;;;;;25.90;66.00;98655.56;4189652;28;21266;-90
2022/09/05 08:04:34;;;;;;;4.90;4.40;;;;;;;26.21;66.77;98654.31;4187759;28;20661;-90
2022/09/05 08:06:39;;;;;;;6.27;4.63;;;;;;;26.40;65.40;98650.22;4204176;28;20741;-90
2022/09/05 08:09:06;;;;;;;6.97;4.77;;;;;;;26.30;65.05;98647.88;4169601;28;20666;-90
2022/09/05 08:11:31;;;;;;;5.23;4.83;;;;;;;26.29;65.57;98643.53;4187230;28;20697;-91
2022/09/05 08:13:48;;;;;;;5.20;4.70;;;;;;;26.58;65.99;98646.94;4170033;28;21061;-88
2022/09/05 08:15:54;;;;;;;10.03;4.60;;;;;;;26.80;64.37;98650.44;4177336;28;20691;-88
2022/09/05 08:18:17;;;;;;;4.93;4.43;;;;;;;27.09;64.47;98646.63;4177146;28;20674;-88
2022/09/05 08:20:30;;;;;;;6.27;4.73;;;;;;;27.26;62.97;98648.00;4207864;28;21178;-89
2022/09/05 08:22:44;;;;;;;4.47;4.00;;;;;;;27.49;63.61;98648.56;4204658;28;20659;-88
2022/09/05 08:25:00;;;;;;;4.83;4.30;;;;;;;27.66;62.39;98645.41;4195455;28;20758;-91
2022/09/05 08:27:09;;;;;;;4.23;3.80;;;;;;;27.81;61.30;98648.78;4194733;28;20661;-89
2022/09/05 08:29:30;;;;;;;4.20;3.80;;;;;;;27.89;61.11;98648.63;4207734;28;21323;-89
2022/09/05 08:31:37;;;;;;;6.80;4.07;;;;;;;27.99;61.41;98640.19;4207382;28;21032;-89
2022/09/05 08:33:44;;;;;;;4.70;4.20;;;;;;;28.10;61.12;98637.78;4193306;28;20651;-88
2022/09/05 08:35:51;;;;;;;4.70;3.80;;;;;;;28.23;61.45;98635.97;4189557;28;20651;-89
2022/09/05 08:38:01;;;;;;;4.53;3.20;;;;;;;28.46;59.34;98638.31;4203312;28;20670;-88
2022/09/05 08:40:08;;;;;;;3.60;3.30;;;;;;;28.57;61.34;98638.56;4189549;28;20659;-89
2022/09/05 08:42:25;;;;;;;3.67;3.37;;;;;;;28.81;60.54;98633.47;4172168;28;20669;-89
2022/09/05 08:44:34;;;;;;;3.53;3.20;;;;;;;29.00;60.20;98643.38;4188178;28;20651;-88
2022/09/05 08:47:07;;;;;;;3.60;3.30;;;;;;;29.17;59.73;98628.50;4207216;28;20652;-89
2022/09/05 08:49:52;;;;;;;4.47;3.30;;;;;;;29.37;59.41;98634.72;4189859;28;20688;-89
2022/09/05 08:51:57;;;;;;;10.97;10.00;;;;;;;29.48;59.38;98632.22;4184601;28;20662;-88
2022/09/05 08:54:10;;;;;;;9.17;8.27;;;;;;;29.65;59.62;98634.25;4172594;28;20755;-88
2022/09/05 08:56:17;;;;;;;7.33;5.83;;;;;;;29.83;58.85;98628.22;4184470;28;20690;-88
2022/09/05 08:58:51;;;;;;;2.90;2.60;;;;;;;29.78;56.66;98625.31;4186034;28;21269;-90
2022/09/05 09:01:21;;;;;;;3.63;2.80;;;;;;;29.87;56.79;98630.28;4184648;28;20644;-88
2022/09/05 09:03:29;;;;;;;5.30;2.87;;;;;;;30.01;57.52;98627.34;4188356;28;20647;-89
2022/09/05 09:06:01;;;;;;;5.10;3.20;;;;;;;30.14;57.18;98619.19;4188205;28;20656;-88
2022/09/05 09:08:19;;;;;;;2.57;2.37;;;;;;;30.19;55.17;98613.16;4187625;28;21057;-88
2022/09/05 09:10:33;;;;;;;3.13;2.43;;;;;;;30.25;56.59;98615.00;4189133;28;20681;-88
2022/09/05 09:13:08;;;;;;;4.10;2.40;;;;;;;30.24;55.93;98613.34;4172716;28;20644;-88
2022/09/05 09:15:18;;;;;;;2.73;2.47;;;;;;;30.40;56.21;98611.03;4175421;28;20735;-89
2022/09/05 09:17:31;;;;;;;2.97;2.60;;;;;;;30.53;56.91;98613.63;4192404;28;20730;-88
2022/09/05 09:19:45;;;;;;;3.13;2.20;;;;;;;30.61;55.41;98610.66;4194139;28;20667;-89
2022/09/05 09:21:57;;;;;;;3.10;2.80;;;;;;;30.66;54.60;98608.16;4189341;28;21293;-88
2022/09/05 09:24:09;;;;;;;2.50;2.23;;;;;;;30.65;54.51;98590.31;4193702;28;20771;-88
2022/09/05 09:26:14;;;;;;;3.40;2.20;;;;;;;30.76;56.15;98605.78;4188919;28;21104;-88
2022/09/05 09:28:46;;;;;;;2.30;2.10;;;;;;;30.89;55.09;98605.72;4191154;28;20686;-87
2022/09/05 09:30:57;;;;;;;3.13;2.37;;;;;;;30.99;54.64;98613.09;4206051;28;20665;-90
2022/09/05 09:33:05;;;;;;;2.57;2.30;;;;;;;31.07;53.38;98606.59;4188966;28;20646;-89
2022/09/05 09:35:11;;;;;;;2.90;2.60;;;;;;;31.10;54.35;98601.59;4188040;28;20654;-89
2022/09/05 09:37:24;;;;;;;2.90;2.60;;;;;;;31.13;54.07;98603.84;4186747;28;20654;-85
2022/09/05 09:40:09;;;;;;;3.20;2.53;;;;;;;31.22;53.27;98601.69;4188510;28;20653;-88
2022/09/05 09:42:25;;;;;;;4.23;2.37;;;;;;;31.33;53.66;98598.28;4191669;28;20751;-88
2022/09/05 09:45:02;;;;;;;3.43;2.47;;;;;;;31.29;53.70;98608.69;4201265;28;21233;-87
2022/09/05 09:47:40;;;;;;;2.70;2.50;;;;;;;31.34;53.64;98597.22;4189018;28;20651;-90
2022/09/05 09:50:09;;;;;;;6.60;2.40;;;;;;;31.37;52.87;98602.19;4191438;28;21000;-88
2022/09/05 09:52:45;;;;;;;4.73;3.70;;;;;;;31.36;52.51;98598.63;4167797;28;20759;-88
2022/09/05 09:55:24;;;;;;;2.37;2.00;;;;;;;31.31;52.22;98590.41;4204970;28;21323;-88
2022/09/05 09:58:13;;;;;;;2.90;2.20;;;;;;;31.38;51.99;98587.63;4170507;28;20652;-89
2022/09/05 10:00:19;;;;;;;6.60;2.53;;;;;;;31.41;51.04;98590.75;4199039;28;20639;-88
2022/09/05 10:02:47;;;;;;;2.63;2.43;;;;;;;31.43;51.66;98581.38;4173519;28;20679;-88
2022/09/05 10:05:36;;;;;;;3.33;2.30;;;;;;;31.41;51.28;98582.66;4182314;28;20651;-88
2022/09/05 10:08:18;;;;;;;4.83;2.50;;;;;;;31.47;51.58;98574.50;4184234;28;20747;-88
2022/09/05 10:11:14;;;;;;;2.93;2.47;;;;;;;31.57;53.04;98576.66;4179381;28;20717;-88
2022/09/05 10:14:18;;;;;;;2.90;2.60;;;;;;;31.55;50.62;98567.97;4160768;28;20648;-88
2022/09/05 10:17:05;;;;;;;3.20;2.50;;;;;;;31.57;52.87;98571.25;4136397;28;20668;-88
2022/09/05 10:19:35;;;;;;;3.57;2.53;;;;;;;31.50;51.29;98565.13;4173188;28;21063;-89
2022/09/05 10:22:23;;;;;;;3.00;2.40;;;;;;;31.52;51.69;98568.41;4181636;28;21096;-89
2022/09/05 10:25:06;;;;;;;4.63;2.47;;;;;;;31.62;51.00;98564.16;4178334;28;20998;-88
2022/09/05 10:27:29;;;;;;;2.70;2.50;;;;;;;31.68;50.85;98567.81;4166949;28;20678;-89
2022/09/05 10:30:09;;;;;;;4.23;2.63;;;;;;;31.60;50.07;98573.50;4183977;28;20664;-90
2022/09/05 10:32:16;;;;;;;2.63;2.30;;;;;;;31.61;51.33;98570.59;4201001;28;21221;-88
2022/09/05 10:34:46;;;;;;;3.13;2.53;;;;;;;31.58;50.65;98567.53;4179909;28;20632;-88
2022/09/05 10:37:12;;;;;;;3.00;2.70;;;;;;;31.49;50.06;98558.06;4185776;28;20743;-88
2022/09/05 10:39:18;;;;;;;3.20;2.90;;;;;;;31.41;50.66;98556.50;4204930;28;20651;-93
2022/09/05 10:41:32;;;;;;;4.50;2.90;;;;;;;31.47;50.11;98560.19;4186168;28;20666;-89
2022/09/05 10:43:43;;;;;;;3.27;2.37;;;;;;;31.41;50.26;98559.19;4183312;28;21198;-89
2022/09/05 10:45:52;;;;;;;3.83;2.53;;;;;;;31.27;49.06;98559.50;4185786;28;20765;-89
2022/09/05 10:48:00;;;;;;;3.00;2.37;;;;;;;31.28;49.86;98549.56;4176607;28;20222;-89
2022/09/05 10:50:26;;;;;;;3.57;2.20;;;;;;;31.38;49.20;98550.69;4199083;28;20650;-89
2022/09/05 10:52:35;;;;;;;2.90;2.47;;;;;;;31.38;48.23;98544.47;4197973;28;20658;-89
2022/09/05 10:54:48;;;;;;;4.27;3.63;;;;;;;31.35;49.69;98543.06;4203498;28;21282;-89
2022/09/05 10:57:00;;;;;;;2.63;2.27;;;;;;;31.44;48.25;98537.16;4182916;28;20755;-89
2022/09/05 10:59:04;;;;;;;3.63;2.30;;;;;;;31.47;48.19;98531.31;4186697;28;21116;-90
2022/09/05 11:01:40;;;;;;;3.40;2.50;;;;;;;31.44;49.90;98534.47;4181521;28;20234;-90
2022/09/05 11:04:16;;;;;;;3.70;2.50;;;;;;;31.41;49.26;98526.00;4187623;28;20654;-90